Tye River, Virginia
Current Conditions -  °F | °C
As of 8:55 PM on Thursday 18 Dec 2014 (Local Time) from KW13 Reporting Station
Overcast Overcast  
Wind Chill: 34°   Ceiling: 9000
Heat Index: 34°   Visibility: 10mi
Dew Point: 24°   Wind: 0mph
Humidity: 67%   Direction: NA
Pressure: 30.05"   Gusts: NA
Location:  37.6956°N, 78.9097°W
Report Text: KW13 190155Z AUTO 00000KT 10SM OVC090 01/M04 A3005 RMK AO1 T00121044
Loading
Personal Weather Stations






























Interactive Weather Map New forecast layout! Learn more

10-Day Weather Forecast

Advertisements
Track Severe Weather on mobile